sensor_id;sensor_type;location;lat;lon;timestamp;temperature;humidity
39219;DHT22;24934;52.752;6.964;2022-09-02T00:01:27;12.40;99.90
39219;DHT22;24934;52.752;6.964;2022-09-02T00:04:05;12.40;99.90
39219;DHT22;24934;52.752;6.964;2022-09-02T00:06:32;12.50;99.90
39219;DHT22;24934;52.752;6.964;2022-09-02T00:08:58;12.60;99.90
39219;DHT22;24934;52.752;6.964;2022-09-02T00:11:35;12.70;99.90
39219;DHT22;24934;52.752;6.964;2022-09-02T00:14:04;12.80;99.90
39219;DHT22;24934;52.752;6.964;2022-09-02T00:16:33;12.90;99.90
39219;DHT22;24934;52.752;6.964;2022-09-02T00:19:00;13.00;99.90
39219;DHT22;24934;52.752;6.964;2022-09-02T00:21:27;13.00;99.90
39219;DHT22;24934;52.752;6.964;2022-09-02T00:23:53;13.00;99.90
39219;DHT22;24934;52.752;6.964;2022-09-02T00:26:19;13.10;99.90
39219;DHT22;24934;52.752;6.964;2022-09-02T00:28:45;13.10;99.90
39219;DHT22;24934;52.752;6.964;2022-09-02T00:31:13;13.10;99.90
39219;DHT22;24934;52.752;6.964;2022-09-02T00:33:42;13.10;99.90
39219;DHT22;24934;52.752;6.964;2022-09-02T00:36:08;13.00;99.90
39219;DHT22;24934;52.752;6.964;2022-09-02T00:38:34;13.00;99.90
39219;DHT22;24934;52.752;6.964;2022-09-02T00:41:04;12.90;99.90
39219;DHT22;24934;52.752;6.964;2022-09-02T00:46:12;12.90;99.90
39219;DHT22;24934;52.752;6.964;2022-09-02T00:48:41;12.80;99.90
39219;DHT22;24934;52.752;6.964;2022-09-02T00:51:08;12.80;99.90
39219;DHT22;24934;52.752;6.964;2022-09-02T00:53:38;12.80;99.90
39219;DHT22;24934;52.752;6.964;2022-09-02T00:56:06;12.70;99.90
39219;DHT22;24934;52.752;6.964;2022-09-02T00:58:41;12.70;99.90
39219;DHT22;24934;52.752;6.964;2022-09-02T01:01:10;12.70;99.90
39219;DHT22;24934;52.752;6.964;2022-09-02T01:03:36;12.70;99.90
39219;DHT22;24934;52.752;6.964;2022-09-02T01:06:02;12.60;99.90
39219;DHT22;24934;52.752;6.964;2022-09-02T01:08:33;12.60;99.90
39219;DHT22;24934;52.752;6.964;2022-09-02T01:11:01;12.60;99.90
39219;DHT22;24934;52.752;6.964;2022-09-02T01:13:36;12.50;99.90
39219;DHT22;24934;52.752;6.964;2022-09-02T01:16:28;12.50;99.90
39219;DHT22;24934;52.752;6.964;2022-09-02T01:18:59;12.40;99.90
39219;DHT22;24934;52.752;6.964;2022-09-02T01:21:26;12.40;99.90
39219;DHT22;24934;52.752;6.964;2022-09-02T01:23:54;12.40;99.90
39219;DHT22;24934;52.752;6.964;2022-09-02T01:26:20;12.30;99.90
39219;DHT22;24934;52.752;6.964;2022-09-02T01:28:46;12.30;99.90
39219;DHT22;24934;52.752;6.964;2022-09-02T01:31:12;12.20;99.90
39219;DHT22;24934;52.752;6.964;2022-09-02T01:33:37;12.30;99.90
39219;DHT22;24934;52.752;6.964;2022-09-02T01:36:03;12.20;99.90
39219;DHT22;24934;52.752;6.964;2022-09-02T01:38:29;12.20;99.90
39219;DHT22;24934;52.752;6.964;2022-09-02T01:40:56;12.20;99.90
39219;DHT22;24934;52.752;6.964;2022-09-02T01:43:26;12.20;99.90
39219;DHT22;24934;52.752;6.964;2022-09-02T01:45:55;12.20;99.90
39219;DHT22;24934;52.752;6.964;2022-09-02T01:48:24;12.20;99.90
39219;DHT22;24934;52.752;6.964;2022-09-02T01:50:56;12.20;99.90
39219;DHT22;24934;52.752;6.964;2022-09-02T01:53:22;12.20;99.90
39219;DHT22;24934;52.752;6.964;2022-09-02T01:55:48;12.20;99.90
39219;DHT22;24934;52.752;6.964;2022-09-02T01:58:14;12.10;99.90
39219;DHT22;24934;52.752;6.964;2022-09-02T02:00:43;12.10;99.90
39219;DHT22;24934;52.752;6.964;2022-09-02T02:03:08;12.10;99.90
39219;DHT22;24934;52.752;6.964;2022-09-02T02:05:34;12.00;99.90
39219;DHT22;24934;52.752;6.964;2022-09-02T02:08:00;12.00;99.90
39219;DHT22;24934;52.752;6.964;2022-09-02T02:10:26;12.00;99.90
39219;DHT22;24934;52.752;6.964;2022-09-02T02:12:52;12.00;99.90
39219;DHT22;24934;52.752;6.964;2022-09-02T02:15:19;12.00;99.90
39219;DHT22;24934;52.752;6.964;2022-09-02T02:17:45;12.00;99.90
39219;DHT22;24934;52.752;6.964;2022-09-02T02:20:15;12.00;99.90
39219;DHT22;24934;52.752;6.964;2022-09-02T02:22:42;12.00;99.90
39219;DHT22;24934;52.752;6.964;2022-09-02T02:25:09;11.90;99.90
39219;DHT22;24934;52.752;6.964;2022-09-02T02:27:35;11.90;99.90
39219;DHT22;24934;52.752;6.964;2022-09-02T02:30:02;11.90;99.90
39219;DHT22;24934;52.752;6.964;2022-09-02T02:32:28;11.90;99.90
39219;DHT22;24934;52.752;6.964;2022-09-02T02:34:55;11.80;99.90
39219;DHT22;24934;52.752;6.964;2022-09-02T02:37:20;11.80;99.90
39219;DHT22;24934;52.752;6.964;2022-09-02T02:39:46;11.80;99.90
39219;DHT22;24934;52.752;6.964;2022-09-02T02:42:14;11.80;99.90
39219;DHT22;24934;52.752;6.964;2022-09-02T02:44:41;11.80;99.90
39219;DHT22;24934;52.752;6.964;2022-09-02T02:47:07;11.70;99.90
39219;DHT22;24934;52.752;6.964;2022-09-02T02:49:38;11.70;99.90
39219;DHT22;24934;52.752;6.964;2022-09-02T02:52:07;11.70;99.90
39219;DHT22;24934;52.752;6.964;2022-09-02T02:54:33;11.70;99.90
39219;DHT22;24934;52.752;6.964;2022-09-02T02:56:59;11.80;99.90
39219;DHT22;24934;52.752;6.964;2022-09-02T02:59:24;11.80;99.90
39219;DHT22;24934;52.752;6.964;2022-09-02T03:01:51;11.80;99.90
39219;DHT22;24934;52.752;6.964;2022-09-02T03:04:19;11.70;99.90
39219;DHT22;24934;52.752;6.964;2022-09-02T03:06:45;11.60;99.90
39219;DHT22;24934;52.752;6.964;2022-09-02T03:09:11;11.50;99.90
39219;DHT22;24934;52.752;6.964;2022-09-02T03:11:39;11.50;99.90
39219;DHT22;24934;52.752;6.964;2022-09-02T03:14:05;11.40;99.90
39219;DHT22;24934;52.752;6.964;2022-09-02T03:16:34;11.30;99.90
39219;DHT22;24934;52.752;6.964;2022-09-02T03:19:00;11.30;99.90
39219;DHT22;24934;52.752;6.964;2022-09-02T03:21:25;11.30;99.90
39219;DHT22;24934;52.752;6.964;2022-09-02T03:23:51;11.20;99.90
39219;DHT22;24934;52.752;6.964;2022-09-02T03:26:19;11.20;99.90
39219;DHT22;24934;52.752;6.964;2022-09-02T03:28:46;11.20;99.90
39219;DHT22;24934;52.752;6.964;2022-09-02T03:31:19;11.20;99.90
39219;DHT22;24934;52.752;6.964;2022-09-02T03:33:45;11.20;99.90
39219;DHT22;24934;52.752;6.964;2022-09-02T03:36:26;11.10;99.90
39219;DHT22;24934;52.752;6.964;2022-09-02T03:38:52;11.00;99.90
39219;DHT22;24934;52.752;6.964;2022-09-02T03:41:19;11.00;99.90
39219;DHT22;24934;52.752;6.964;2022-09-02T03:43:45;11.10;99.90
39219;DHT22;24934;52.752;6.964;2022-09-02T03:46:11;11.10;99.90
39219;DHT22;24934;52.752;6.964;2022-09-02T03:48:38;11.00;99.90
39219;DHT22;24934;52.752;6.964;2022-09-02T03:51:05;11.00;99.90
39219;DHT22;24934;52.752;6.964;2022-09-02T03:53:31;11.00;99.90
39219;DHT22;24934;52.752;6.964;2022-09-02T03:56:04;11.00;99.90
39219;DHT22;24934;52.752;6.964;2022-09-02T03:58:30;10.90;99.90
39219;DHT22;24934;52.752;6.964;2022-09-02T04:00:57;10.90;99.90
39219;DHT22;24934;52.752;6.964;2022-09-02T04:03:22;10.90;99.90
39219;DHT22;24934;52.752;6.964;2022-09-02T04:05:51;10.90;99.90
39219;DHT22;24934;52.752;6.964;2022-09-02T04:08:17;10.90;99.90
39219;DHT22;24934;52.752;6.964;2022-09-02T04:10:43;10.80;99.90
39219;DHT22;24934;52.752;6.964;2022-09-02T04:13:09;10.80;99.90
39219;DHT22;24934;52.752;6.964;2022-09-02T04:15:40;10.80;99.90
39219;DHT22;24934;52.752;6.964;2022-09-02T04:18:12;10.80;99.90
39219;DHT22;24934;52.752;6.964;2022-09-02T04:20:39;10.80;99.90
39219;DHT22;24934;52.752;6.964;2022-09-02T04:23:05;10.70;99.90
39219;DHT22;24934;52.752;6.964;2022-09-02T04:25:31;10.70;99.90
39219;DHT22;24934;52.752;6.964;2022-09-02T04:27:58;10.70;99.90
39219;DHT22;24934;52.752;6.964;2022-09-02T04:30:27;10.70;99.90
39219;DHT22;24934;52.752;6.964;2022-09-02T04:32:52;10.70;99.90
39219;DHT22;24934;52.752;6.964;2022-09-02T04:35:21;10.70;99.90
39219;DHT22;24934;52.752;6.964;2022-09-02T04:37:47;10.70;99.90
39219;DHT22;24934;52.752;6.964;2022-09-02T04:40:14;10.70;99.90
39219;DHT22;24934;52.752;6.964;2022-09-02T04:42:40;10.70;99.90
39219;DHT22;24934;52.752;6.964;2022-09-02T04:45:06;10.70;99.90
39219;DHT22;24934;52.752;6.964;2022-09-02T04:47:32;10.80;99.90
39219;DHT22;24934;52.752;6.964;2022-09-02T04:49:58;10.80;99.90
39219;DHT22;24934;52.752;6.964;2022-09-02T04:52:24;10.80;99.90
39219;DHT22;24934;52.752;6.964;2022-09-02T04:54:50;10.90;99.90
39219;DHT22;24934;52.752;6.964;2022-09-02T04:57:16;10.90;99.90
39219;DHT22;24934;52.752;6.964;2022-09-02T04:59:41;10.90;99.90
39219;DHT22;24934;52.752;6.964;2022-09-02T05:02:07;11.00;99.90
39219;DHT22;24934;52.752;6.964;2022-09-02T05:04:36;11.10;99.90
39219;DHT22;24934;52.752;6.964;2022-09-02T05:07:02;11.10;99.90
39219;DHT22;24934;52.752;6.964;2022-09-02T05:09:29;11.20;99.90
39219;DHT22;24934;52.752;6.964;2022-09-02T05:11:55;11.20;99.90
39219;DHT22;24934;52.752;6.964;2022-09-02T05:14:28;11.20;99.90
39219;DHT22;24934;52.752;6.964;2022-09-02T05:16:53;11.20;99.90
39219;DHT22;24934;52.752;6.964;2022-09-02T05:19:21;11.30;99.90
39219;DHT22;24934;52.752;6.964;2022-09-02T05:21:49;11.30;99.90
39219;DHT22;24934;52.752;6.964;2022-09-02T05:24:15;11.30;99.90
39219;DHT22;24934;52.752;6.964;2022-09-02T05:26:41;11.40;99.90
39219;DHT22;24934;52.752;6.964;2022-09-02T05:29:10;11.40;99.90
39219;DHT22;24934;52.752;6.964;2022-09-02T05:31:37;11.40;99.90
39219;DHT22;24934;52.752;6.964;2022-09-02T05:34:04;11.50;99.90
39219;DHT22;24934;52.752;6.964;2022-09-02T05:36:31;11.50;99.90
39219;DHT22;24934;52.752;6.964;2022-09-02T05:38:58;11.60;99.90
39219;DHT22;24934;52.752;6.964;2022-09-02T05:41:24;11.70;99.90
39219;DHT22;24934;52.752;6.964;2022-09-02T05:43:51;12.10;99.90
39219;DHT22;24934;52.752;6.964;2022-09-02T05:46:19;12.60;99.90
39219;DHT22;24934;52.752;6.964;2022-09-02T05:48:47;13.00;99.90
39219;DHT22;24934;52.752;6.964;2022-09-02T05:51:44;13.30;99.90
39219;DHT22;24934;52.752;6.964;2022-09-02T05:54:16;13.30;99.90
39219;DHT22;24934;52.752;6.964;2022-09-02T05:56:51;13.40;99.90
39219;DHT22;24934;52.752;6.964;2022-09-02T05:59:18;13.40;99.90
39219;DHT22;24934;52.752;6.964;2022-09-02T06:01:54;13.40;99.90
39219;DHT22;24934;52.752;6.964;2022-09-02T06:04:23;13.40;99.90
39219;DHT22;24934;52.752;6.964;2022-09-02T06:06:50;13.30;99.90
39219;DHT22;24934;52.752;6.964;2022-09-02T06:09:19;13.30;99.90
39219;DHT22;24934;52.752;6.964;2022-09-02T06:11:46;13.30;99.90
39219;DHT22;24934;52.752;6.964;2022-09-02T06:14:18;13.40;99.90
39219;DHT22;24934;52.752;6.964;2022-09-02T06:16:45;13.40;99.90
39219;DHT22;24934;52.752;6.964;2022-09-02T06:19:10;13.50;99.90
39219;DHT22;24934;52.752;6.964;2022-09-02T06:21:37;13.60;99.90
39219;DHT22;24934;52.752;6.964;2022-09-02T06:24:07;13.80;99.90
39219;DHT22;24934;52.752;6.964;2022-09-02T06:26:33;14.00;99.90
39219;DHT22;24934;52.752;6.964;2022-09-02T06:28:59;14.10;99.90
39219;DHT22;24934;52.752;6.964;2022-09-02T06:31:25;14.20;99.90
39219;DHT22;24934;52.752;6.964;2022-09-02T06:33:53;14.30;99.90
39219;DHT22;24934;52.752;6.964;2022-09-02T06:36:20;14.50;99.90
39219;DHT22;24934;52.752;6.964;2022-09-02T06:38:50;14.60;99.90
39219;DHT22;24934;52.752;6.964;2022-09-02T06:41:19;14.70;99.90
39219;DHT22;24934;52.752;6.964;2022-09-02T06:43:47;14.80;99.90
39219;DHT22;24934;52.752;6.964;2022-09-02T06:46:16;15.10;99.90
39219;DHT22;24934;52.752;6.964;2022-09-02T06:48:42;15.30;99.90
39219;DHT22;24934;52.752;6.964;2022-09-02T06:51:07;15.50;99.90
39219;DHT22;24934;52.752;6.964;2022-09-02T06:53:33;15.70;99.90
39219;DHT22;24934;52.752;6.964;2022-09-02T06:55:59;16.10;99.90
39219;DHT22;24934;52.752;6.964;2022-09-02T06:58:24;16.30;99.90
39219;DHT22;24934;52.752;6.964;2022-09-02T07:00:50;16.50;99.90
39219;DHT22;24934;52.752;6.964;2022-09-02T07:03:16;16.70;99.90
39219;DHT22;24934;52.752;6.964;2022-09-02T07:06:00;17.00;99.90
39219;DHT22;24934;52.752;6.964;2022-09-02T07:08:27;17.40;99.90
39219;DHT22;24934;52.752;6.964;2022-09-02T07:10:55;17.60;99.90
39219;DHT22;24934;52.752;6.964;2022-09-02T07:13:23;17.80;99.90
39219;DHT22;24934;52.752;6.964;2022-09-02T07:15:49;18.00;99.90
39219;DHT22;24934;52.752;6.964;2022-09-02T07:18:15;18.00;99.90
39219;DHT22;24934;52.752;6.964;2022-09-02T07:20:44;18.20;99.90
39219;DHT22;24934;52.752;6.964;2022-09-02T07:23:10;18.50;99.90
39219;DHT22;24934;52.752;6.964;2022-09-02T07:25:38;18.80;99.90
39219;DHT22;24934;52.752;6.964;2022-09-02T07:28:05;18.90;99.90
39219;DHT22;24934;52.752;6.964;2022-09-02T07:30:31;19.00;99.90
39219;DHT22;24934;52.752;6.964;2022-09-02T07:32:57;19.30;99.90
39219;DHT22;24934;52.752;6.964;2022-09-02T07:35:22;19.60;99.90
39219;DHT22;24934;52.752;6.964;2022-09-02T07:37:48;19.60;99.90
39219;DHT22;24934;52.752;6.964;2022-09-02T07:40:15;19.80;99.90
39219;DHT22;24934;52.752;6.964;2022-09-02T07:42:42;19.80;99.90
39219;DHT22;24934;52.752;6.964;2022-09-02T07:45:11;19.90;99.90
39219;DHT22;24934;52.752;6.964;2022-09-02T07:47:37;20.10;99.90
39219;DHT22;24934;52.752;6.964;2022-09-02T07:50:04;20.30;99.90
39219;DHT22;24934;52.752;6.964;2022-09-02T07:52:30;20.60;99.90
39219;DHT22;24934;52.752;6.964;2022-09-02T07:54:55;20.90;99.90
39219;DHT22;24934;52.752;6.964;2022-09-02T07:57:21;20.90;99.90
39219;DHT22;24934;52.752;6.964;2022-09-02T07:59:47;20.90;99.90
39219;DHT22;24934;52.752;6.964;2022-09-02T08:02:13;21.10;99.90
39219;DHT22;24934;52.752;6.964;2022-09-02T08:04:41;21.20;99.90
39219;DHT22;24934;52.752;6.964;2022-09-02T08:07:08;21.00;99.90
39219;DHT22;24934;52.752;6.964;2022-09-02T08:09:33;21.00;99.90
39219;DHT22;24934;52.752;6.964;2022-09-02T08:11:59;21.00;99.90
39219;DHT22;24934;52.752;6.964;2022-09-02T08:14:25;21.10;99.90
39219;DHT22;24934;52.752;6.964;2022-09-02T08:16:56;21.30;99.90
39219;DHT22;24934;52.752;6.964;2022-09-02T08:19:25;21.50;99.90
39219;DHT22;24934;52.752;6.964;2022-09-02T08:21:51;21.60;99.90
39219;DHT22;24934;52.752;6.964;2022-09-02T08:24:20;21.70;99.90
39219;DHT22;24934;52.752;6.964;2022-09-02T08:26:48;21.90;99.90
39219;DHT22;24934;52.752;6.964;2022-09-02T08:29:14;22.10;99.90
39219;DHT22;24934;52.752;6.964;2022-09-02T08:31:42;22.20;99.90
39219;DHT22;24934;52.752;6.964;2022-09-02T08:34:08;21.90;99.90
39219;DHT22;24934;52.752;6.964;2022-09-02T08:36:34;21.80;99.90
39219;DHT22;24934;52.752;6.964;2022-09-02T08:39:03;21.90;99.90
39219;DHT22;24934;52.752;6.964;2022-09-02T08:44:22;22.30;99.90
39219;DHT22;24934;52.752;6.964;2022-09-02T08:46:55;22.20;99.90
39219;DHT22;24934;52.752;6.964;2022-09-02T08:49:29;22.30;99.90
39219;DHT22;24934;52.752;6.964;2022-09-02T08:52:05;22.30;99.90
39219;DHT22;24934;52.752;6.964;2022-09-02T08:54:40;22.30;99.90
39219;DHT22;24934;52.752;6.964;2022-09-02T08:57:08;22.50;99.90
39219;DHT22;24934;52.752;6.964;2022-09-02T08:59:35;22.80;99.90
39219;DHT22;24934;52.752;6.964;2022-09-02T09:05:11;22.80;99.90
39219;DHT22;24934;52.752;6.964;2022-09-02T09:11:01;23.40;99.90
39219;DHT22;24934;52.752;6.964;2022-09-02T09:16:34;23.70;99.90
39219;DHT22;24934;52.752;6.964;2022-09-02T09:19:14;23.80;99.90
39219;DHT22;24934;52.752;6.964;2022-09-02T09:21:42;24.00;99.90
39219;DHT22;24934;52.752;6.964;2022-09-02T09:24:34;24.30;99.90
39219;DHT22;24934;52.752;6.964;2022-09-02T09:27:13;24.40;99.90
39219;DHT22;24934;52.752;6.964;2022-09-02T09:29:39;24.50;99.90
39219;DHT22;24934;52.752;6.964;2022-09-02T09:32:20;24.80;99.90
39219;DHT22;24934;52.752;6.964;2022-09-02T09:34:59;24.90;99.90
39219;DHT22;24934;52.752;6.964;2022-09-02T09:37:52;24.90;99.90
39219;DHT22;24934;52.752;6.964;2022-09-02T09:45:35;25.10;99.90
39219;DHT22;24934;52.752;6.964;2022-09-02T09:48:18;24.70;99.90
39219;DHT22;24934;52.752;6.964;2022-09-02T09:51:09;24.50;99.90
39219;DHT22;24934;52.752;6.964;2022-09-02T09:53:35;24.40;99.90
39219;DHT22;24934;52.752;6.964;2022-09-02T09:56:23;24.20;99.90
39219;DHT22;24934;52.752;6.964;2022-09-02T09:58:49;24.10;99.90
39219;DHT22;24934;52.752;6.964;2022-09-02T10:01:32;24.30;99.90
39219;DHT22;24934;52.752;6.964;2022-09-02T10:04:10;24.60;99.90
39219;DHT22;24934;52.752;6.964;2022-09-02T10:06:38;24.70;99.90
39219;DHT22;24934;52.752;6.964;2022-09-02T10:11:57;24.80;99.90
39219;DHT22;24934;52.752;6.964;2022-09-02T10:23:20;24.90;99.30
39219;DHT22;24934;52.752;6.964;2022-09-02T10:36:37;24.70;98.40
39219;DHT22;24934;52.752;6.964;2022-09-02T10:42:08;24.90;98.20
39219;DHT22;24934;52.752;6.964;2022-09-02T10:47:33;25.50;98.40
39219;DHT22;24934;52.752;6.964;2022-09-02T10:58:06;25.80;97.90
39219;DHT22;24934;52.752;6.964;2022-09-02T11:00:37;26.00;98.10
39219;DHT22;24934;52.752;6.964;2022-09-02T11:05:52;26.10;98.30
39219;DHT22;24934;52.752;6.964;2022-09-02T11:08:35;25.80;97.70
39219;DHT22;24934;52.752;6.964;2022-09-02T11:13:53;26.20;98.40
39219;DHT22;24934;52.752;6.964;2022-09-02T11:16:40;26.30;99.10
39219;DHT22;24934;52.752;6.964;2022-09-02T11:24:41;26.50;97.70
39219;DHT22;24934;52.752;6.964;2022-09-02T11:27:16;26.80;96.80
39219;DHT22;24934;52.752;6.964;2022-09-02T11:32:31;26.40;97.50
39219;DHT22;24934;52.752;6.964;2022-09-02T11:35:05;26.40;96.80
39219;DHT22;24934;52.752;6.964;2022-09-02T11:40:33;27.00;96.60
39219;DHT22;24934;52.752;6.964;2022-09-02T11:46:12;26.90;96.20
39219;DHT22;24934;52.752;6.964;2022-09-02T11:48:52;27.30;96.30
39219;DHT22;24934;52.752;6.964;2022-09-02T11:51:50;27.50;95.80
39219;DHT22;24934;52.752;6.964;2022-09-02T11:54:23;27.60;95.80
39219;DHT22;24934;52.752;6.964;2022-09-02T11:56:57;27.60;95.30
39219;DHT22;24934;52.752;6.964;2022-09-02T12:11:05;27.90;95.00
39219;DHT22;24934;52.752;6.964;2022-09-02T12:13:40;28.10;94.60
39219;DHT22;24934;52.752;6.964;2022-09-02T12:21:34;28.40;93.50
39219;DHT22;24934;52.752;6.964;2022-09-02T12:24:04;28.70;93.20
39219;DHT22;24934;52.752;6.964;2022-09-02T12:29:12;28.70;93.40
39219;DHT22;24934;52.752;6.964;2022-09-02T12:31:57;28.40;93.70
39219;DHT22;24934;52.752;6.964;2022-09-02T12:36:53;27.70;93.50
39219;DHT22;24934;52.752;6.964;2022-09-02T12:41:56;27.80;93.00
39219;DHT22;24934;52.752;6.964;2022-09-02T12:44:36;28.00;93.70
39219;DHT22;24934;52.752;6.964;2022-09-02T12:52:38;27.90;93.60
39219;DHT22;24934;52.752;6.964;2022-09-02T12:55:24;27.70;92.70
39219;DHT22;24934;52.752;6.964;2022-09-02T12:58:05;28.00;92.90
39219;DHT22;24934;52.752;6.964;2022-09-02T13:04:01;28.60;92.90
39219;DHT22;24934;52.752;6.964;2022-09-02T13:11:45;29.20;92.60
39219;DHT22;24934;52.752;6.964;2022-09-02T13:17:27;28.60;92.30
39219;DHT22;24934;52.752;6.964;2022-09-02T13:25:54;28.80;92.10
39219;DHT22;24934;52.752;6.964;2022-09-02T13:31:19;29.00;92.50
39219;DHT22;24934;52.752;6.964;2022-09-02T13:34:12;28.80;91.70
39219;DHT22;24934;52.752;6.964;2022-09-02T13:36:45;28.70;92.20
39219;DHT22;24934;52.752;6.964;2022-09-02T13:39:17;28.50;91.10
39219;DHT22;24934;52.752;6.964;2022-09-02T13:41:48;28.60;91.60
39219;DHT22;24934;52.752;6.964;2022-09-02T13:44:24;28.50;92.30
39219;DHT22;24934;52.752;6.964;2022-09-02T13:46:53;28.40;91.30
39219;DHT22;24934;52.752;6.964;2022-09-02T13:49:29;28.80;91.00
39219;DHT22;24934;52.752;6.964;2022-09-02T13:51:56;29.00;91.20
39219;DHT22;24934;52.752;6.964;2022-09-02T13:54:29;29.00;91.00
39219;DHT22;24934;52.752;6.964;2022-09-02T13:57:00;29.30;92.30
39219;DHT22;24934;52.752;6.964;2022-09-02T13:59:46;29.60;91.90
39219;DHT22;24934;52.752;6.964;2022-09-02T14:02:21;29.40;91.10
39219;DHT22;24934;52.752;6.964;2022-09-02T14:05:03;29.20;91.00
39219;DHT22;24934;52.752;6.964;2022-09-02T14:07:40;29.00;91.40
39219;DHT22;24934;52.752;6.964;2022-09-02T14:10:11;29.00;91.30
39219;DHT22;24934;52.752;6.964;2022-09-02T14:12:39;28.80;91.10
39219;DHT22;24934;52.752;6.964;2022-09-02T14:15:08;28.70;91.30
39219;DHT22;24934;52.752;6.964;2022-09-02T14:17:40;28.60;91.40
39219;DHT22;24934;52.752;6.964;2022-09-02T14:20:21;28.60;90.90
39219;DHT22;24934;52.752;6.964;2022-09-02T14:23:00;28.60;91.00
39219;DHT22;24934;52.752;6.964;2022-09-02T14:25:30;29.10;91.80
39219;DHT22;24934;52.752;6.964;2022-09-02T14:28:00;29.40;91.10
39219;DHT22;24934;52.752;6.964;2022-09-02T14:30:41;29.70;91.20
39219;DHT22;24934;52.752;6.964;2022-09-02T14:33:45;29.40;91.40
39219;DHT22;24934;52.752;6.964;2022-09-02T14:38:54;28.10;91.40
39219;DHT22;24934;52.752;6.964;2022-09-02T14:44:24;27.40;91.60
39219;DHT22;24934;52.752;6.964;2022-09-02T14:46:58;27.00;91.20
39219;DHT22;24934;52.752;6.964;2022-09-02T14:54:51;26.30;92.20
39219;DHT22;24934;52.752;6.964;2022-09-02T14:57:41;26.30;92.90
39219;DHT22;24934;52.752;6.964;2022-09-02T15:00:16;26.20;92.00
39219;DHT22;24934;52.752;6.964;2022-09-02T15:02:44;26.10;92.90
39219;DHT22;24934;52.752;6.964;2022-09-02T15:05:20;26.50;92.40
39219;DHT22;24934;52.752;6.964;2022-09-02T15:08:00;26.80;92.50
39219;DHT22;24934;52.752;6.964;2022-09-02T15:11:00;27.10;93.30
39219;DHT22;24934;52.752;6.964;2022-09-02T15:13:35;27.30;92.70
39219;DHT22;24934;52.752;6.964;2022-09-02T15:16:04;27.30;91.10
39219;DHT22;24934;52.752;6.964;2022-09-02T15:18:33;27.40;90.60
39219;DHT22;24934;52.752;6.964;2022-09-02T15:20:58;27.60;90.50
39219;DHT22;24934;52.752;6.964;2022-09-02T15:23:24;27.60;90.20
39219;DHT22;24934;52.752;6.964;2022-09-02T15:25:57;27.40;90.20
39219;DHT22;24934;52.752;6.964;2022-09-02T15:28:30;27.10;90.60
39219;DHT22;24934;52.752;6.964;2022-09-02T15:30:59;26.50;91.30
39219;DHT22;24934;52.752;6.964;2022-09-02T15:33:37;26.40;91.60
39219;DHT22;24934;52.752;6.964;2022-09-02T15:36:18;26.40;91.50
39219;DHT22;24934;52.752;6.964;2022-09-02T15:38:47;26.30;92.00
39219;DHT22;24934;52.752;6.964;2022-09-02T15:41:17;26.10;92.80
39219;DHT22;24934;52.752;6.964;2022-09-02T15:43:46;25.90;92.70
39219;DHT22;24934;52.752;6.964;2022-09-02T15:46:28;25.70;93.20
39219;DHT22;24934;52.752;6.964;2022-09-02T15:49:05;25.70;92.90
39219;DHT22;24934;52.752;6.964;2022-09-02T15:51:32;25.60;92.90
39219;DHT22;24934;52.752;6.964;2022-09-02T15:54:00;25.50;92.90
39219;DHT22;24934;52.752;6.964;2022-09-02T15:56:28;25.50;93.20
39219;DHT22;24934;52.752;6.964;2022-09-02T15:58:55;25.50;93.60
39219;DHT22;24934;52.752;6.964;2022-09-02T16:01:41;25.50;93.00
39219;DHT22;24934;52.752;6.964;2022-09-02T16:04:08;25.50;92.40
39219;DHT22;24934;52.752;6.964;2022-09-02T16:06:36;25.60;92.40
39219;DHT22;24934;52.752;6.964;2022-09-02T16:09:07;25.60;92.30
39219;DHT22;24934;52.752;6.964;2022-09-02T16:11:37;25.50;92.30
39219;DHT22;24934;52.752;6.964;2022-09-02T16:14:03;25.60;92.60
39219;DHT22;24934;52.752;6.964;2022-09-02T16:16:33;25.50;91.90
39219;DHT22;24934;52.752;6.964;2022-09-02T16:19:00;25.50;92.10
39219;DHT22;24934;52.752;6.964;2022-09-02T16:21:27;25.40;92.20
39219;DHT22;24934;52.752;6.964;2022-09-02T16:23:53;25.50;92.70
39219;DHT22;24934;52.752;6.964;2022-09-02T16:26:24;25.60;93.20
39219;DHT22;24934;52.752;6.964;2022-09-02T16:28:55;25.80;93.70
39219;DHT22;24934;52.752;6.964;2022-09-02T16:31:23;25.70;93.50
39219;DHT22;24934;52.752;6.964;2022-09-02T16:34:01;25.70;93.50
39219;DHT22;24934;52.752;6.964;2022-09-02T16:36:28;25.50;93.60
39219;DHT22;24934;52.752;6.964;2022-09-02T16:38:57;25.30;93.50
39219;DHT22;24934;52.752;6.964;2022-09-02T16:41:34;25.10;93.40
39219;DHT22;24934;52.752;6.964;2022-09-02T16:44:05;25.00;93.50
39219;DHT22;24934;52.752;6.964;2022-09-02T16:46:32;25.00;93.80
39219;DHT22;24934;52.752;6.964;2022-09-02T16:48:58;24.80;94.00
39219;DHT22;24934;52.752;6.964;2022-09-02T16:51:25;24.70;93.80
39219;DHT22;24934;52.752;6.964;2022-09-02T16:54:01;24.60;93.90
39219;DHT22;24934;52.752;6.964;2022-09-02T16:56:27;24.40;94.20
39219;DHT22;24934;52.752;6.964;2022-09-02T16:59:00;24.40;94.40
39219;DHT22;24934;52.752;6.964;2022-09-02T17:01:28;24.20;94.50
39219;DHT22;24934;52.752;6.964;2022-09-02T17:03:54;24.10;94.30
39219;DHT22;24934;52.752;6.964;2022-09-02T17:06:20;24.00;95.00
39219;DHT22;24934;52.752;6.964;2022-09-02T17:08:45;23.90;95.00
39219;DHT22;24934;52.752;6.964;2022-09-02T17:11:21;23.80;94.80
39219;DHT22;24934;52.752;6.964;2022-09-02T17:13:50;23.70;95.20
39219;DHT22;24934;52.752;6.964;2022-09-02T17:16:17;23.60;95.10
39219;DHT22;24934;52.752;6.964;2022-09-02T17:18:43;23.50;95.20
39219;DHT22;24934;52.752;6.964;2022-09-02T17:21:19;23.50;95.50
39219;DHT22;24934;52.752;6.964;2022-09-02T17:23:45;23.40;95.50
39219;DHT22;24934;52.752;6.964;2022-09-02T17:26:10;23.40;95.70
39219;DHT22;24934;52.752;6.964;2022-09-02T17:28:36;23.40;95.70
39219;DHT22;24934;52.752;6.964;2022-09-02T17:31:28;23.20;95.50
39219;DHT22;24934;52.752;6.964;2022-09-02T17:33:57;23.10;95.20
39219;DHT22;24934;52.752;6.964;2022-09-02T17:36:27;23.00;95.40
39219;DHT22;24934;52.752;6.964;2022-09-02T17:39:01;22.90;96.10
39219;DHT22;24934;52.752;6.964;2022-09-02T17:41:27;22.80;95.80
39219;DHT22;24934;52.752;6.964;2022-09-02T17:44:12;22.60;95.90
39219;DHT22;24934;52.752;6.964;2022-09-02T17:46:40;22.50;96.00
39219;DHT22;24934;52.752;6.964;2022-09-02T17:49:06;22.40;95.90
39219;DHT22;24934;52.752;6.964;2022-09-02T17:51:32;22.30;96.30
39219;DHT22;24934;52.752;6.964;2022-09-02T17:54:01;22.20;96.70
39219;DHT22;24934;52.752;6.964;2022-09-02T17:56:43;22.10;96.50
39219;DHT22;24934;52.752;6.964;2022-09-02T17:59:32;22.00;96.80
39219;DHT22;24934;52.752;6.964;2022-09-02T18:10:38;21.40;98.00
39219;DHT22;24934;52.752;6.964;2022-09-02T18:13:10;21.30;97.70
39219;DHT22;24934;52.752;6.964;2022-09-02T18:18:48;21.10;98.80